createdAt,value
2018-03-17T00:01:41.609Z,82.61
2018-03-17T00:04:09.091Z,82.61
2018-03-17T00:06:37.553Z,82.63
2018-03-17T00:09:05.068Z,82.89
2018-03-17T00:11:32.611Z,83.47
2018-03-17T00:14:00.090Z,83.75
2018-03-17T00:16:27.580Z,84.08
2018-03-17T00:18:55.063Z,84.31
2018-03-17T00:21:22.893Z,84.66
2018-03-17T00:23:50.399Z,84.38
2018-03-17T00:26:18.033Z,84.56
2018-03-17T00:28:45.524Z,84.80
2018-03-17T00:31:13.041Z,84.78
2018-03-17T00:33:40.537Z,85.01
2018-03-17T00:36:08.291Z,84.13
2018-03-17T00:38:35.765Z,84.07
2018-03-17T00:41:03.261Z,83.84
2018-03-17T00:43:31.384Z,84.46
2018-03-17T00:45:58.902Z,84.20
2018-03-17T00:48:26.643Z,84.34
2018-03-17T00:50:54.338Z,84.12
2018-03-17T00:53:21.843Z,84.26
2018-03-17T00:55:49.348Z,84.46
2018-03-17T00:58:17.628Z,84.67
2018-03-17T01:00:46.140Z,84.88
2018-03-17T01:03:13.615Z,84.80
2018-03-17T01:05:41.132Z,85.10
2018-03-17T01:08:09.027Z,84.98
2018-03-17T01:10:38.904Z,85.13
2018-03-17T01:13:06.386Z,85.14
2018-03-17T01:15:34.039Z,83.94
2018-03-17T01:18:01.670Z,81.99
2018-03-17T01:20:31.316Z,81.79
2018-03-17T01:22:58.862Z,81.42
2018-03-17T01:25:28.414Z,81.57
2018-03-17T01:27:55.997Z,80.61
2018-03-17T01:30:24.551Z,80.30
2018-03-17T01:32:53.517Z,80.35
2018-03-17T01:35:21.096Z,80.62
2018-03-17T01:37:49.057Z,80.61
2018-03-17T01:40:16.565Z,80.08
2018-03-17T01:42:44.070Z,79.14
2018-03-17T01:45:11.597Z,77.69
2018-03-17T01:47:39.500Z,77.16
2018-03-17T01:50:07.848Z,76.08
2018-03-17T01:52:35.352Z,75.98
2018-03-17T01:55:02.888Z,76.04
2018-03-17T01:57:30.356Z,76.53
2018-03-17T01:59:57.820Z,76.06
2018-03-17T02:02:25.320Z,75.73
2018-03-17T02:04:52.802Z,75.68
2018-03-17T02:07:20.321Z,76.01
2018-03-17T02:09:47.776Z,76.03
2018-03-17T02:12:15.284Z,75.73
2018-03-17T02:17:17.625Z,76.23
2018-03-17T02:19:46.824Z,75.67
2018-03-17T02:22:14.500Z,76.16
2018-03-17T02:24:42.786Z,76.33
2018-03-17T02:27:11.150Z,75.90
2018-03-17T02:29:38.718Z,76.32
2018-03-17T02:32:06.205Z,76.77
2018-03-17T02:34:33.913Z,76.16
2018-03-17T02:37:01.408Z,76.97
2018-03-17T02:39:28.974Z,76.69
2018-03-17T02:41:56.440Z,75.92
2018-03-17T02:44:23.905Z,76.55
2018-03-17T02:46:51.401Z,76.39
2018-03-17T02:49:19.296Z,76.91
2018-03-17T02:51:47.537Z,76.80
2018-03-17T02:54:15.027Z,76.98
2018-03-17T02:56:43.006Z,77.25
2018-03-17T02:59:10.492Z,76.83
2018-03-17T03:01:37.959Z,77.25
2018-03-17T03:04:05.442Z,77.62
2018-03-17T03:06:32.924Z,77.54
2018-03-17T03:09:00.449Z,77.42
2018-03-17T03:11:27.942Z,77.42
2018-03-17T03:13:55.437Z,76.78
2018-03-17T03:16:22.928Z,76.60
2018-03-17T03:18:50.429Z,77.00
2018-03-17T03:21:18.033Z,76.76
2018-03-17T03:23:45.520Z,77.18
2018-03-17T03:26:13.120Z,76.97
2018-03-17T03:28:40.650Z,76.69
2018-03-17T03:31:08.154Z,76.88
2018-03-17T03:33:35.620Z,76.87
2018-03-17T03:36:03.077Z,77.08
2018-03-17T03:38:31.047Z,76.39
2018-03-17T03:40:58.559Z,76.44
2018-03-17T03:43:26.039Z,76.15
2018-03-17T03:45:53.501Z,76.00
2018-03-17T03:48:20.995Z,75.64
2018-03-17T03:50:48.667Z,75.60
2018-03-17T03:53:16.170Z,75.24
2018-03-17T03:55:43.658Z,75.19
2018-03-17T03:58:11.154Z,75.79
2018-03-17T04:00:39.375Z,76.37
2018-03-17T04:03:06.918Z,76.92
2018-03-17T04:05:34.427Z,77.03
2018-03-17T04:08:01.943Z,77.29
2018-03-17T04:10:30.142Z,77.36
2018-03-17T04:12:57.608Z,77.06
2018-03-17T04:15:25.086Z,76.38
2018-03-17T04:17:52.548Z,76.57
2018-03-17T04:20:20.036Z,77.26
2018-03-17T04:22:47.536Z,77.14
2018-03-17T04:25:15.016Z,76.60
2018-03-17T04:27:42.563Z,76.35
2018-03-17T04:30:10.074Z,77.25
2018-03-17T04:32:37.572Z,77.24
2018-03-17T04:35:05.128Z,77.41
2018-03-17T04:37:32.666Z,77.30
2018-03-17T04:40:00.158Z,77.34
2018-03-17T04:42:27.762Z,77.33
2018-03-17T04:44:55.241Z,76.96
2018-03-17T04:47:22.724Z,76.61
2018-03-17T04:49:50.186Z,76.82
2018-03-17T04:52:17.762Z,76.34
2018-03-17T04:54:45.492Z,76.38
2018-03-17T04:57:12.990Z,76.62
2018-03-17T04:59:40.484Z,76.74
2018-03-17T05:02:08.000Z,76.50
2018-03-17T05:04:35.472Z,76.92
2018-03-17T05:07:02.961Z,76.73
2018-03-17T05:09:30.441Z,76.84
2018-03-17T05:11:57.900Z,76.98
2018-03-17T05:14:25.399Z,77.11
2018-03-17T05:16:53.268Z,76.55
2018-03-17T05:19:20.732Z,75.86
2018-03-17T05:21:48.217Z,75.71
2018-03-17T05:24:15.688Z,75.46
2018-03-17T05:26:43.248Z,75.48
2018-03-17T05:29:10.800Z,75.24
2018-03-17T05:31:38.276Z,75.54
2018-03-17T05:34:05.754Z,76.00
2018-03-17T05:36:33.202Z,76.63
2018-03-17T05:39:00.702Z,75.84
2018-03-17T05:41:28.232Z,76.08
2018-03-17T05:43:55.708Z,75.35
2018-03-17T05:46:23.232Z,75.70
2018-03-17T05:48:50.702Z,75.76
2018-03-17T05:51:19.284Z,75.61
2018-03-17T05:53:46.753Z,76.17
2018-03-17T05:56:14.472Z,76.29
2018-03-17T05:58:41.988Z,76.13
2018-03-17T06:01:09.465Z,75.76
2018-03-17T06:03:36.953Z,75.09
2018-03-17T06:06:04.433Z,75.31
2018-03-17T06:08:33.297Z,75.21
2018-03-17T06:11:00.764Z,75.33
2018-03-17T06:13:28.293Z,75.02
2018-03-17T06:15:55.775Z,75.30
2018-03-17T06:18:24.507Z,74.97
2018-03-17T06:20:52.032Z,74.66
2018-03-17T06:23:19.508Z,74.00
2018-03-17T06:25:47.009Z,74.35
2018-03-17T06:28:14.572Z,74.51
2018-03-17T06:30:42.115Z,74.49
2018-03-17T06:33:09.597Z,74.70
2018-03-17T06:35:37.084Z,74.48
2018-03-17T06:38:04.562Z,74.47
2018-03-17T06:40:32.095Z,74.66
2018-03-17T06:42:59.614Z,74.32
2018-03-17T06:45:27.084Z,74.24
2018-03-17T06:47:54.656Z,73.87
2018-03-17T06:50:22.192Z,73.74
2018-03-17T06:52:49.913Z,73.41
2018-03-17T06:55:17.501Z,73.01
2018-03-17T06:57:45.001Z,72.93
2018-03-17T07:00:12.573Z,73.66
2018-03-17T07:02:40.504Z,73.84
2018-03-17T07:05:08.278Z,73.66
2018-03-17T07:07:35.781Z,73.97
2018-03-17T07:10:04.278Z,74.02
2018-03-17T07:12:31.748Z,74.36
2018-03-17T07:14:59.353Z,73.50
2018-03-17T07:17:26.908Z,72.57
2018-03-17T07:19:54.391Z,73.42
2018-03-17T07:22:21.848Z,72.68
2018-03-17T07:24:49.565Z,72.84
2018-03-17T07:27:17.101Z,73.08
2018-03-17T07:29:44.837Z,73.88
2018-03-17T07:32:12.288Z,72.69
2018-03-17T07:34:39.755Z,72.42
2018-03-17T07:37:07.317Z,72.55
2018-03-17T07:39:34.803Z,72.49
2018-03-17T07:42:02.274Z,72.47
2018-03-17T07:44:30.238Z,72.76
2018-03-17T07:46:57.724Z,72.21
2018-03-17T07:49:25.816Z,72.14
2018-03-17T07:51:53.276Z,72.19
2018-03-17T07:54:20.829Z,72.87
2018-03-17T07:56:48.291Z,73.47
2018-03-17T07:59:15.784Z,73.05
2018-03-17T08:01:43.274Z,72.85
2018-03-17T08:04:10.853Z,72.88
2018-03-17T08:06:38.306Z,73.47
2018-03-17T08:09:05.792Z,73.69
2018-03-17T08:11:33.254Z,73.73
2018-03-17T08:14:00.696Z,73.74
2018-03-17T08:16:28.502Z,73.89
2018-03-17T08:18:55.989Z,73.72
2018-03-17T08:21:23.512Z,73.53
2018-03-17T08:23:51.072Z,73.12
2018-03-17T08:26:22.456Z,73.17
2018-03-17T08:28:49.977Z,73.43
2018-03-17T08:31:17.644Z,73.30
2018-03-17T08:33:45.120Z,73.12
2018-03-17T08:36:12.663Z,73.04
2018-03-17T08:38:40.153Z,72.89
2018-03-17T08:41:07.615Z,72.44
2018-03-17T08:43:35.104Z,72.67
2018-03-17T08:46:02.683Z,73.02
2018-03-17T08:48:30.262Z,72.83
2018-03-17T08:50:57.765Z,72.97
2018-03-17T08:53:25.257Z,72.31
2018-03-17T08:55:52.891Z,71.87
2018-03-17T08:58:20.408Z,71.85
2018-03-17T09:00:48.662Z,72.47
2018-03-17T09:03:16.506Z,73.05
2018-03-17T09:05:44.017Z,73.09
2018-03-17T09:08:11.542Z,73.39
2018-03-17T09:10:39.097Z,73.65
2018-03-17T09:13:06.588Z,73.59
2018-03-17T09:15:34.113Z,73.54
2018-03-17T09:18:01.822Z,73.28
2018-03-17T09:20:29.488Z,73.59
2018-03-17T09:22:57.046Z,73.96
2018-03-17T09:25:24.665Z,73.67
2018-03-17T09:27:52.215Z,73.44
2018-03-17T09:30:19.740Z,73.35
2018-03-17T09:32:47.223Z,72.95
2018-03-17T09:35:14.697Z,72.77
2018-03-17T09:37:42.477Z,72.61
2018-03-17T09:40:09.977Z,72.93
2018-03-17T09:42:37.427Z,73.17
2018-03-17T09:45:04.915Z,72.72
2018-03-17T09:47:32.411Z,73.03
2018-03-17T09:49:59.919Z,73.12
2018-03-17T09:52:27.487Z,73.00
2018-03-17T09:54:55.045Z,73.11
2018-03-17T09:57:23.433Z,72.87
2018-03-17T09:59:50.946Z,72.57
2018-03-17T10:02:18.563Z,72.53
2018-03-17T10:04:46.178Z,71.58
2018-03-17T10:07:13.737Z,71.79
2018-03-17T10:09:41.288Z,72.59
2018-03-17T10:12:08.778Z,72.41
2018-03-17T10:14:36.331Z,72.07
2018-03-17T10:17:03.934Z,72.55
2018-03-17T10:19:31.477Z,72.50
2018-03-17T10:21:59.019Z,71.87
2018-03-17T10:24:26.755Z,72.06
2018-03-17T10:26:55.379Z,71.97
2018-03-17T10:29:22.881Z,72.21
2018-03-17T10:31:50.365Z,72.32
2018-03-17T10:34:17.841Z,72.19
2018-03-17T10:36:48.510Z,72.74
2018-03-17T10:39:16.349Z,73.02
2018-03-17T10:41:43.948Z,72.47
2018-03-17T10:44:11.441Z,72.75
2018-03-17T10:46:38.953Z,72.91
2018-03-17T10:49:06.419Z,73.04
2018-03-17T10:51:33.901Z,73.73
2018-03-17T10:54:01.388Z,75.39
2018-03-17T10:56:28.972Z,75.16
2018-03-17T10:58:56.508Z,75.14
2018-03-17T11:01:25.915Z,75.37
2018-03-17T11:03:53.379Z,75.83
2018-03-17T11:06:21.107Z,76.03
2018-03-17T11:21:43.740Z,79.64
2018-03-17T11:24:11.329Z,80.10
2018-03-17T11:26:38.867Z,80.30
2018-03-17T11:29:06.931Z,80.53
2018-03-17T11:31:37.348Z,80.18
2018-03-17T11:34:08.250Z,80.77
2018-03-17T11:52:40.917Z,83.20
2018-03-17T11:55:08.492Z,83.19
2018-03-17T11:57:36.042Z,82.86
2018-03-17T12:00:04.354Z,82.88
2018-03-17T12:02:32.362Z,83.67
2018-03-17T12:04:59.868Z,83.37
2018-03-17T12:07:28.858Z,83.67
2018-03-17T12:09:56.501Z,83.83
2018-03-17T12:12:24.328Z,83.81
2018-03-17T12:14:51.977Z,84.65
2018-03-17T12:17:19.757Z,84.77
2018-03-17T12:19:47.337Z,85.22
2018-03-17T12:22:19.507Z,85.57
2018-03-17T12:24:48.821Z,85.46
2018-03-17T12:27:20.628Z,84.98
2018-03-17T12:29:48.216Z,84.68
2018-03-17T12:32:16.184Z,85.54
2018-03-17T12:34:43.699Z,85.82
2018-03-17T12:37:12.351Z,86.01
2018-03-17T12:39:39.976Z,86.14
2018-03-17T12:42:07.826Z,85.88
2018-03-17T12:44:37.524Z,85.67
2018-03-17T12:47:05.958Z,85.68
2018-03-17T12:49:34.841Z,85.72
2018-03-17T13:05:02.099Z,85.38
2018-03-17T13:07:29.652Z,86.10
2018-03-17T13:09:57.199Z,85.52
2018-03-17T13:12:26.756Z,86.18
2018-03-17T13:14:58.459Z,85.83
2018-03-17T13:29:21.484Z,85.86
2018-03-17T13:31:49.448Z,85.22
2018-03-17T13:37:00.962Z,86.28
2018-03-17T13:39:28.666Z,86.70
2018-03-17T13:41:56.151Z,86.08
2018-03-17T13:44:23.624Z,85.75
2018-03-17T13:46:52.367Z,85.38
2018-03-17T13:49:20.824Z,84.79
2018-03-17T13:51:48.304Z,84.99
2018-03-17T13:54:15.796Z,84.97
2018-03-17T13:56:43.312Z,85.36
2018-03-17T13:59:10.796Z,85.31
2018-03-17T14:01:39.411Z,85.82
2018-03-17T14:04:06.891Z,86.01
2018-03-17T14:06:34.436Z,85.67
2018-03-17T14:09:01.923Z,86.28
2018-03-17T14:11:30.322Z,85.87
2018-03-17T14:14:02.474Z,86.29
2018-03-17T14:16:31.686Z,86.08
2018-03-17T14:18:59.236Z,85.70
2018-03-17T14:21:26.727Z,85.97
2018-03-17T14:23:54.307Z,85.68
2018-03-17T14:26:21.755Z,85.17
2018-03-17T14:28:49.461Z,84.91
2018-03-17T14:31:17.146Z,85.35
2018-03-17T14:33:44.547Z,84.66
2018-03-17T14:36:12.044Z,85.15
2018-03-17T14:38:40.316Z,85.48
2018-03-17T14:41:07.847Z,84.35
2018-03-17T14:43:35.375Z,84.41
2018-03-17T14:46:02.882Z,84.04
2018-03-17T14:48:30.980Z,84.27
2018-03-17T14:50:58.539Z,85.33
2018-03-17T14:53:26.116Z,85.08
2018-03-17T14:55:53.771Z,84.95
2018-03-17T14:58:21.601Z,84.97
2018-03-17T15:00:49.105Z,85.59
2018-03-17T15:03:17.104Z,85.59
2018-03-17T15:05:44.587Z,84.88
2018-03-17T15:08:12.130Z,85.04
2018-03-17T15:10:39.677Z,85.52
2018-03-17T15:13:08.873Z,85.21
2018-03-17T15:15:38.080Z,84.60
2018-03-17T15:18:05.707Z,85.18
2018-03-17T15:20:34.878Z,85.68
2018-03-17T15:23:02.457Z,85.76
2018-03-17T15:25:29.962Z,86.63
2018-03-17T15:27:57.456Z,86.47
2018-03-17T15:30:26.864Z,86.80
2018-03-17T15:32:54.356Z,87.46
2018-03-17T15:35:21.828Z,87.38
2018-03-17T15:37:49.488Z,87.39
2018-03-17T15:40:17.508Z,87.21
2018-03-17T15:42:45.097Z,87.30
2018-03-17T15:45:17.756Z,87.28
2018-03-17T15:47:49.932Z,87.56
2018-03-17T15:50:19.584Z,87.40
2018-03-17T15:52:50.639Z,87.25
2018-03-17T15:55:18.225Z,87.28
2018-03-17T15:57:45.742Z,86.85
2018-03-17T16:00:13.228Z,87.21
2018-03-17T16:02:41.375Z,87.11
2018-03-17T16:05:08.883Z,86.31
2018-03-17T16:07:36.687Z,86.32
2018-03-17T16:10:06.199Z,86.30
2018-03-17T16:12:33.757Z,86.70
2018-03-17T16:15:01.243Z,85.42
2018-03-17T16:17:28.981Z,85.84
2018-03-17T16:19:56.482Z,86.09
2018-03-17T16:22:24.004Z,85.96
2018-03-17T16:24:53.222Z,85.73
2018-03-17T16:27:20.945Z,85.54
2018-03-17T16:29:49.384Z,85.78
2018-03-17T16:32:18.271Z,85.91
2018-03-17T16:34:46.172Z,85.82
2018-03-17T16:37:13.757Z,85.83
2018-03-17T16:39:41.265Z,85.00
2018-03-17T16:42:08.776Z,84.86
2018-03-17T16:44:36.529Z,84.43
2018-03-17T16:47:04.149Z,83.85
2018-03-17T16:49:31.676Z,83.90
2018-03-17T16:51:59.214Z,84.14
2018-03-17T16:54:28.283Z,84.10
2018-03-17T16:56:55.949Z,84.32
2018-03-17T16:59:23.463Z,83.85
2018-03-17T17:01:50.955Z,84.39
2018-03-17T17:04:18.443Z,83.95
2018-03-17T17:06:46.228Z,83.07
2018-03-17T17:09:13.813Z,83.09
2018-03-17T17:11:41.312Z,83.43
2018-03-17T17:14:08.831Z,83.58
2018-03-17T17:16:36.324Z,84.34
2018-03-17T17:19:03.816Z,83.92
2018-03-17T17:21:31.407Z,83.32
2018-03-17T17:23:58.946Z,82.78
2018-03-17T17:26:26.488Z,83.53
2018-03-17T17:28:53.968Z,83.06
2018-03-17T17:31:21.761Z,82.82
2018-03-17T17:33:49.283Z,82.73
2018-03-17T17:36:17.481Z,81.80
2018-03-17T17:38:44.977Z,82.41
2018-03-17T17:41:14.597Z,83.46
2018-03-17T17:56:45.281Z,85.48
2018-03-17T17:59:13.319Z,85.35
2018-03-17T18:11:30.356Z,84.64
2018-03-17T18:29:34.658Z,85.16
2018-03-17T18:32:02.375Z,84.50
2018-03-17T18:34:29.985Z,84.71
2018-03-17T18:36:59.544Z,85.22
2018-03-17T18:39:27.281Z,84.02
2018-03-17T18:41:54.800Z,84.22
2018-03-17T18:44:22.292Z,84.43
2018-03-17T18:46:49.830Z,84.17
2018-03-17T18:49:17.437Z,84.59
2018-03-17T18:51:44.923Z,84.14
2018-03-17T18:54:12.434Z,83.64
2018-03-17T18:56:39.948Z,83.77
2018-03-17T18:59:07.450Z,83.52
2018-03-17T19:01:34.943Z,83.82
2018-03-17T19:04:02.472Z,83.69
2018-03-17T19:06:29.982Z,83.73
2018-03-17T19:08:57.481Z,82.92
2018-03-17T19:11:24.993Z,83.49
2018-03-17T19:13:52.550Z,82.66
2018-03-17T19:16:20.032Z,82.29
2018-03-17T19:18:47.525Z,82.48
2018-03-17T19:21:15.040Z,81.79
2018-03-17T19:23:42.622Z,82.33
2018-03-17T19:26:10.135Z,81.71
2018-03-17T19:28:37.632Z,81.25
2018-03-17T19:31:05.181Z,81.74
2018-03-17T19:33:32.653Z,81.16
2018-03-17T19:36:00.131Z,80.74
2018-03-17T19:38:27.619Z,81.18
2018-03-17T19:40:55.167Z,80.99
2018-03-17T19:43:22.665Z,81.28
2018-03-17T19:45:50.182Z,80.88
2018-03-17T19:48:17.747Z,81.10
2018-03-17T19:50:45.249Z,81.57
2018-03-17T19:53:12.724Z,81.83
2018-03-17T19:55:40.259Z,81.73
2018-03-17T19:58:07.745Z,81.81
2018-03-17T20:00:35.220Z,82.55
2018-03-17T20:03:02.759Z,84.63
2018-03-17T20:05:30.296Z,84.11
2018-03-17T20:07:57.828Z,83.53
2018-03-17T20:10:25.355Z,83.04
2018-03-17T20:12:52.833Z,83.33
2018-03-17T20:15:20.356Z,83.39
2018-03-17T20:17:47.862Z,83.56
2018-03-17T20:20:16.595Z,84.25
2018-03-17T20:22:44.132Z,83.90
2018-03-17T20:25:11.651Z,83.18
2018-03-17T20:27:39.142Z,83.07
2018-03-17T20:30:06.630Z,83.31
2018-03-17T20:32:34.107Z,84.07
2018-03-17T20:35:01.659Z,83.86
2018-03-17T20:37:29.169Z,83.98
2018-03-17T20:39:56.644Z,83.65
2018-03-17T20:42:24.510Z,83.20
2018-03-17T20:44:52.034Z,81.97
2018-03-17T20:47:19.530Z,81.68
2018-03-17T20:49:46.996Z,81.14
2018-03-17T20:52:14.769Z,81.56
2018-03-17T20:54:42.252Z,81.67
2018-03-17T20:57:09.736Z,81.87
2018-03-17T20:59:37.223Z,80.72
2018-03-17T21:02:04.753Z,81.32
2018-03-17T21:04:32.251Z,81.62
2018-03-17T21:06:59.772Z,80.65
2018-03-17T21:09:27.261Z,80.29
2018-03-17T21:11:54.837Z,80.47
2018-03-17T21:14:22.331Z,80.55
2018-03-17T21:16:49.840Z,80.71
2018-03-17T21:19:17.388Z,80.04
2018-03-17T21:21:44.869Z,80.13
2018-03-17T21:24:12.376Z,80.30
2018-03-17T21:26:39.908Z,79.56
2018-03-17T21:29:07.447Z,78.93
2018-03-17T21:31:34.966Z,77.90
2018-03-17T21:34:02.436Z,76.95
2018-03-17T21:36:29.923Z,76.87
2018-03-17T21:38:57.425Z,76.68
2018-03-17T21:41:24.926Z,77.53
2018-03-17T21:43:52.464Z,76.07
2018-03-17T21:46:20.123Z,76.22
2018-03-17T21:48:47.747Z,75.69
2018-03-17T21:53:48.542Z,75.78
2018-03-17T21:56:17.092Z,74.71
2018-03-17T21:58:46.276Z,74.68
2018-03-17T22:01:13.743Z,74.74
2018-03-17T22:03:42.033Z,75.04
2018-03-17T22:06:09.813Z,75.34
2018-03-17T22:11:21.110Z,74.88
2018-03-17T22:16:23.186Z,74.64
2018-03-17T22:28:34.277Z,74.21
2018-03-17T22:31:02.810Z,74.27
2018-03-17T22:33:30.318Z,73.54
2018-03-17T22:35:59.831Z,73.62
2018-03-17T22:51:23.425Z,74.42
2018-03-17T22:53:50.915Z,73.26
2018-03-17T22:56:18.399Z,73.67
2018-03-17T22:58:45.866Z,73.71
2018-03-17T23:01:13.352Z,73.08
2018-03-17T23:03:40.842Z,73.03
2018-03-17T23:06:08.356Z,73.37
2018-03-17T23:08:35.822Z,73.45
2018-03-17T23:11:03.352Z,73.23
2018-03-17T23:13:30.859Z,73.03
2018-03-17T23:15:58.361Z,72.42
2018-03-17T23:18:26.584Z,72.47
2018-03-17T23:30:35.325Z,72.45
2018-03-17T23:33:03.171Z,73.65
2018-03-17T23:35:35.023Z,73.82
2018-03-17T23:38:04.301Z,72.11
2018-03-17T23:40:36.259Z,72.10
2018-03-17T23:43:04.086Z,72.02
2018-03-17T23:45:45.765Z,71.84
2018-03-17T23:48:14.869Z,72.26
2018-03-17T23:50:42.898Z,71.67
2018-03-17T23:53:10.488Z,72.09
2018-03-17T23:55:38.161Z,72.98
2018-03-17T23:58:07.910Z,72.18
